createdAt,value
2023-05-24T00:02:53.626Z,99702.88
2023-05-24T00:07:57.488Z,99702.55
2023-05-24T00:13:00.763Z,99700.80
2023-05-24T00:18:05.069Z,99693.69
2023-05-24T00:23:08.474Z,99697.19
2023-05-24T00:28:12.064Z,99699.63
2023-05-24T00:33:16.051Z,99696.13
2023-05-24T00:38:19.334Z,99697.87
2023-05-24T00:43:23.718Z,99690.70
2023-05-24T00:48:29.077Z,99688.43
2023-05-24T00:53:33.592Z,99687.89
2023-05-24T00:58:37.017Z,99683.86
2023-05-24T01:03:42.065Z,99682.64
2023-05-24T01:09:10.432Z,99683.38
2023-05-24T01:14:42.169Z,99682.39
2023-05-24T01:19:56.757Z,99681.79
2023-05-24T01:25:07.762Z,99684.93
2023-05-24T01:30:12.626Z,99691.48
2023-05-24T01:35:16.116Z,99694.60
2023-05-24T01:40:19.692Z,99697.07
2023-05-24T01:45:44.173Z,99696.08
2023-05-24T01:51:06.876Z,99695.44
2023-05-24T01:56:12.591Z,99700.21
2023-05-24T02:01:16.365Z,99700.23
2023-05-24T02:06:20.181Z,99695.72
2023-05-24T02:11:23.683Z,99699.57
2023-05-24T02:16:31.005Z,99694.88
2023-05-24T02:21:34.392Z,99696.30
2023-05-24T02:26:38.724Z,99691.08
2023-05-24T02:31:42.170Z,99692.06
2023-05-24T02:36:46.134Z,99690.67
2023-05-24T02:41:49.389Z,99690.39
2023-05-24T02:46:52.781Z,99686.47
2023-05-24T02:51:56.584Z,99687.43
2023-05-24T02:57:00.016Z,99687.95
2023-05-24T03:02:03.515Z,99691.98
2023-05-24T03:07:07.059Z,99696.55
2023-05-24T03:12:11.339Z,99690.15
2023-05-24T03:17:14.644Z,99692.29
2023-05-24T03:22:18.038Z,99699.64
2023-05-24T03:27:21.389Z,99699.04
2023-05-24T03:32:24.722Z,99703.11
2023-05-24T03:37:28.554Z,99706.63
2023-05-24T03:42:32.366Z,99706.63
2023-05-24T03:47:35.872Z,99711.23
2023-05-24T03:52:39.281Z,99713.97
2023-05-24T03:57:45.671Z,99710.25
2023-05-24T04:02:49.384Z,99711.40
2023-05-24T04:07:53.010Z,99717.23
2023-05-24T04:12:57.725Z,99723.94
2023-05-24T04:18:03.591Z,99729.19
2023-05-24T04:23:07.425Z,99733.24
2023-05-24T04:28:10.801Z,99731.27
2023-05-24T04:33:15.140Z,99734.27
2023-05-24T04:38:22.000Z,99737.61
2023-05-24T04:43:28.922Z,99746.54
2023-05-24T04:48:32.281Z,99754.80
2023-05-24T04:53:35.662Z,99755.92
2023-05-24T04:58:39.461Z,99764.70
2023-05-24T05:03:45.435Z,99766.13
2023-05-24T05:08:49.017Z,99774.45
2023-05-24T05:13:52.616Z,99780.17
2023-05-24T05:18:56.317Z,99782.60
2023-05-24T05:24:00.360Z,99787.84
2023-05-24T05:29:04.088Z,99791.42
2023-05-24T05:34:10.267Z,99799.05
2023-05-24T05:39:14.341Z,99804.06
2023-05-24T05:44:17.953Z,99811.72
2023-05-24T05:49:21.322Z,99814.30
2023-05-24T05:54:24.802Z,99818.61
2023-05-24T05:59:28.334Z,99818.02
2023-05-24T06:04:31.726Z,99823.28
2023-05-24T06:09:35.164Z,99830.21
2023-05-24T06:14:38.727Z,99832.67
2023-05-24T06:19:42.176Z,99837.96
2023-05-24T06:24:46.134Z,99841.69
2023-05-24T06:29:49.689Z,99849.16
2023-05-24T06:34:53.396Z,99853.14
2023-05-24T06:39:56.827Z,99854.79
2023-05-24T06:45:00.138Z,99866.23
2023-05-24T06:50:04.841Z,99867.55
2023-05-24T06:55:09.063Z,99875.42
2023-05-24T07:00:13.433Z,99882.17
2023-05-24T07:05:17.418Z,99886.45
2023-05-24T07:10:20.969Z,99890.70
2023-05-24T07:15:24.474Z,99901.32
2023-05-24T07:20:28.573Z,99910.59
2023-05-24T07:25:32.998Z,99919.88
2023-05-24T07:30:38.969Z,99928.23
2023-05-24T07:35:42.768Z,99935.83
2023-05-24T07:40:46.446Z,99945.11
2023-05-24T07:45:49.890Z,99950.61
2023-05-24T07:50:53.320Z,99952.06
2023-05-24T07:55:57.002Z,99956.40
2023-05-24T08:01:00.575Z,99962.17
2023-05-24T08:06:04.387Z,99968.27
2023-05-24T08:11:08.460Z,99976.02
2023-05-24T08:16:11.876Z,99980.45
2023-05-24T08:21:15.484Z,99982.73
2023-05-24T08:26:21.175Z,99983.70
2023-05-24T08:31:24.748Z,99986.12
2023-05-24T08:36:28.677Z,99991.64
2023-05-24T08:41:37.768Z,99998.65
2023-05-24T08:46:41.642Z,100002.92
2023-05-24T08:51:46.139Z,100006.14
2023-05-24T08:56:49.989Z,100005.95
2023-05-24T09:01:54.801Z,100008.52
2023-05-24T09:06:59.170Z,100013.23
2023-05-24T09:12:06.348Z,100020.67
2023-05-24T09:17:09.959Z,100022.23
2023-05-24T09:22:14.881Z,100026.45
2023-05-24T09:27:22.520Z,100028.19
2023-05-24T09:32:26.086Z,100031.86
2023-05-24T09:37:32.547Z,100035.66
2023-05-24T09:42:36.653Z,100039.28
2023-05-24T09:47:42.358Z,100042.98
2023-05-24T09:52:46.046Z,100047.65
2023-05-24T09:58:05.322Z,100054.27
2023-05-24T10:03:12.237Z,100056.86
2023-05-24T10:08:16.553Z,100049.77
2023-05-24T10:13:23.153Z,100047.10
2023-05-24T10:18:26.702Z,100050.63
2023-05-24T10:23:31.569Z,100046.34
2023-05-24T10:28:39.016Z,100045.23
2023-05-24T10:33:45.434Z,100049.06
2023-05-24T10:38:49.134Z,100053.44
2023-05-24T10:44:08.634Z,100046.71
2023-05-24T10:49:15.297Z,100045.49
2023-05-24T10:54:19.997Z,100044.49
2023-05-24T10:59:24.525Z,100048.59
2023-05-24T11:04:32.563Z,100046.55
2023-05-24T11:09:37.789Z,100047.82
2023-05-24T11:14:41.260Z,100049.70
2023-05-24T11:19:55.445Z,100045.18
2023-05-24T11:25:04.152Z,100048.45
2023-05-24T11:30:09.074Z,100051.17
2023-05-24T11:35:12.604Z,100050.98
2023-05-24T11:40:17.516Z,100049.88
2023-05-24T11:45:21.605Z,100053.29
2023-05-24T11:50:26.661Z,100051.59
2023-05-24T11:55:33.099Z,100057.33
2023-05-24T12:00:36.766Z,100063.35
2023-05-24T12:05:40.213Z,100064.90
2023-05-24T12:10:44.422Z,100065.48
2023-05-24T12:15:53.863Z,100068.30
2023-05-24T12:21:11.954Z,100073.31
2023-05-24T12:26:21.077Z,100074.56
2023-05-24T12:31:24.535Z,100070.72
2023-05-24T12:36:33.562Z,100074.69
2023-05-24T12:41:36.989Z,100079.02
2023-05-24T12:46:40.635Z,100076.34
2023-05-24T12:51:44.034Z,100080.61
2023-05-24T12:56:47.633Z,100077.45
2023-05-24T13:01:52.223Z,100077.08
2023-05-24T13:06:56.128Z,100071.84
2023-05-24T13:11:59.647Z,100077.89
2023-05-24T13:17:03.411Z,100073.77
2023-05-24T13:22:07.496Z,100075.96
2023-05-24T13:27:11.322Z,100075.79
2023-05-24T13:32:14.840Z,100074.83
2023-05-24T13:37:19.679Z,100071.63
2023-05-24T13:42:23.457Z,100073.95
2023-05-24T13:47:38.637Z,100073.16
2023-05-24T13:52:44.015Z,100078.11
2023-05-24T13:57:51.576Z,100080.69
2023-05-24T14:02:56.257Z,100085.29
2023-05-24T14:08:06.683Z,100085.88
2023-05-24T14:13:36.889Z,100084.26
2023-05-24T14:18:34.908Z,100087.50
2023-05-24T14:23:39.450Z,100089.64
2023-05-24T14:28:42.867Z,100084.00
2023-05-24T14:33:46.376Z,100083.05
2023-05-24T14:38:49.896Z,100090.70
2023-05-24T14:43:53.506Z,100101.39
2023-05-24T14:48:57.013Z,100099.48
2023-05-24T14:54:00.373Z,100095.82
2023-05-24T14:59:03.812Z,100090.77
2023-05-24T15:04:07.204Z,100080.14
2023-05-24T15:09:12.111Z,100073.34
2023-05-24T15:14:15.732Z,100069.29
2023-05-24T15:19:19.262Z,100066.47
2023-05-24T15:24:22.773Z,100063.30
2023-05-24T15:29:26.391Z,100063.24
2023-05-24T15:34:30.005Z,100067.67
2023-05-24T15:39:34.748Z,100068.59
2023-05-24T15:44:38.471Z,100072.77
2023-05-24T15:49:41.987Z,100088.80
2023-05-24T15:54:45.460Z,100102.05
2023-05-24T15:59:48.866Z,100110.67
2023-05-24T16:04:52.321Z,100114.57
2023-05-24T16:09:56.039Z,100118.30
2023-05-24T16:15:02.844Z,100122.95
2023-05-24T16:20:07.249Z,100117.52
2023-05-24T16:25:11.197Z,100125.80
2023-05-24T16:30:14.824Z,100134.57
2023-05-24T16:35:18.186Z,100135.84
2023-05-24T16:40:22.361Z,100143.27
2023-05-24T16:45:25.890Z,100127.95
2023-05-24T16:50:29.443Z,100118.48
2023-05-24T16:55:33.221Z,100116.70
2023-05-24T17:00:36.830Z,100113.11
2023-05-24T17:05:40.655Z,100118.09
2023-05-24T17:10:44.155Z,100123.98
2023-05-24T17:15:48.165Z,100121.69
2023-05-24T17:20:52.212Z,100121.74
2023-05-24T17:25:56.471Z,100117.08
2023-05-24T17:31:01.730Z,100121.40
2023-05-24T17:36:06.561Z,100116.57
2023-05-24T17:41:10.192Z,100118.12
2023-05-24T17:46:14.556Z,100121.92
2023-05-24T17:51:19.732Z,100130.42
2023-05-24T17:56:23.691Z,100128.30
2023-05-24T18:01:28.167Z,100126.83
2023-05-24T18:06:32.263Z,100131.74
2023-05-24T18:11:36.570Z,100133.06
2023-05-24T18:16:39.991Z,100142.41
2023-05-24T18:21:43.837Z,100150.38
2023-05-24T18:26:47.504Z,100157.34
2023-05-24T18:31:51.960Z,100157.84
2023-05-24T18:36:55.934Z,100163.28
2023-05-24T18:41:59.379Z,100169.10
2023-05-24T18:47:03.061Z,100176.13
2023-05-24T18:52:06.876Z,100184.14
2023-05-24T18:57:10.747Z,100190.61
2023-05-24T19:02:14.137Z,100193.27
2023-05-24T19:07:17.928Z,100191.46
2023-05-24T19:12:21.348Z,100195.32
2023-05-24T19:17:25.567Z,100195.91
2023-05-24T19:22:29.571Z,100198.39
2023-05-24T19:27:33.121Z,100197.42
2023-05-24T19:32:38.834Z,100199.17
2023-05-24T19:37:42.403Z,100198.96
2023-05-24T19:42:46.027Z,100204.91
2023-05-24T19:47:49.777Z,100211.55
2023-05-24T19:52:53.358Z,100214.19
2023-05-24T19:57:56.719Z,100214.84
2023-05-24T20:03:00.515Z,100213.41
2023-05-24T20:08:04.314Z,100212.34
2023-05-24T20:13:07.838Z,100215.96
2023-05-24T20:18:11.452Z,100219.64
2023-05-24T20:23:15.070Z,100217.55
2023-05-24T20:28:29.490Z,100218.17
2023-05-24T20:33:38.578Z,100214.91
2023-05-24T20:38:42.327Z,100215.83
2023-05-24T20:43:45.958Z,100216.39
2023-05-24T20:48:49.657Z,100218.80
2023-05-24T20:53:53.673Z,100221.55
2023-05-24T20:59:00.280Z,100222.63
2023-05-24T21:04:04.098Z,100227.12
2023-05-24T21:09:07.602Z,100226.08
2023-05-24T21:14:11.218Z,100230.02
2023-05-24T21:19:14.425Z,100240.08
2023-05-24T21:24:17.946Z,100239.09
2023-05-24T21:29:21.469Z,100244.79
2023-05-24T21:34:24.870Z,100247.19
2023-05-24T21:39:28.486Z,100247.23
2023-05-24T21:44:31.912Z,100247.20
2023-05-24T21:49:35.518Z,100252.88
2023-05-24T21:54:38.933Z,100260.23
2023-05-24T21:59:42.444Z,100257.13
2023-05-24T22:04:46.269Z,100251.90
2023-05-24T22:09:49.791Z,100248.17
2023-05-24T22:14:53.199Z,100250.64
2023-05-24T22:19:56.719Z,100250.00
2023-05-24T22:25:02.295Z,100248.09
2023-05-24T22:30:07.023Z,100247.50
2023-05-24T22:35:10.765Z,100241.72
2023-05-24T22:40:14.471Z,100236.98
2023-05-24T22:45:18.805Z,100236.50
2023-05-24T22:50:22.626Z,100233.54
2023-05-24T22:55:26.552Z,100238.39
2023-05-24T23:00:30.068Z,100246.30
2023-05-24T23:05:36.036Z,100248.48
2023-05-24T23:10:46.001Z,100245.30
2023-05-24T23:15:49.521Z,100235.85
2023-05-24T23:20:56.333Z,100240.45
2023-05-24T23:25:59.830Z,100242.02
2023-05-24T23:31:03.400Z,100247.52
2023-05-24T23:36:07.575Z,100247.87
2023-05-24T23:41:11.099Z,100242.27
2023-05-24T23:46:17.330Z,100238.43
2023-05-24T23:51:21.094Z,100236.23
2023-05-24T23:56:24.618Z,100238.14
